Terminal Aerodrome Forecast
Issued by NWS

Home | Current Version | Previous Version | Graphics & Text | Print | Product List | Glossary On
Versions: 1 2 3 4 5 6 7 8 9 10 11 12 13 14 15 16 17 18 19 20 21 22 23 24 25 26 27 28 29 30 31 32 33
183
FTUS43 KGRB 092333
TAFATW
TAF
KATW 092333Z 1000/1024 29008KT P6SM SCT045
     FM100200 27008KT P6SM BKN045
     FM100800 27007KT P6SM SCT045
     FM102000 27008KT P6SM BKN035=

USA.gov is the U.S. government's official web portal to all federal, state and local government web resources and services.